Time;durP1;ratioP1;P1;durP2;ratioP2;P2;SDS_P1;SDS_P2;PMS_P1;PMS_P2;Temp;Humidity;BMP_temperature;BMP_pressure;BME280_temperature;BME280_humidity;BME280_pressure;Samples;Min_cycle;Max_cycle;Signal;HPM_P1;HPM_P2
2021/11/30 00:01:20;;;;;;;7.10;2.60;;;5.30;73.10;;;;;;2318493;54;21621;-72
2021/11/30 00:03:46;;;;;;;7.43;2.90;;;5.30;73.00;;;;;;2555758;53;20989;-71
2021/11/30 00:06:15;;;;;;;5.12;2.70;;;5.30;73.00;;;;;;2588007;53;21025;-71
2021/11/30 00:08:42;;;;;;;6.75;3.10;;;5.30;73.10;;;;;;2338007;54;21014;-73
2021/11/30 00:11:09;;;;;;;4.62;2.50;;;5.30;73.00;;;;;;2323491;54;20921;-70
2021/11/30 00:13:37;;;;;;;4.75;2.45;;;5.30;73.00;;;;;;2571942;53;20998;-72
2021/11/30 00:16:05;;;;;;;6.18;2.50;;;5.30;73.10;;;;;;2572606;53;20920;-70
2021/11/30 00:18:33;;;;;;;3.90;2.10;;;5.30;73.10;;;;;;2342064;54;20937;-70
2021/11/30 00:21:02;;;;;;;5.65;2.65;;;5.30;72.90;;;;;;2330336;54;20978;-72
2021/11/30 00:23:29;;;;;;;4.07;2.50;;;5.30;72.90;;;;;;2562125;53;20920;-72
2021/11/30 00:25:55;;;;;;;5.12;2.60;;;5.30;72.80;;;;;;2565724;53;21349;-72
2021/11/30 00:28:22;;;;;;;4.95;2.35;;;5.30;72.80;;;;;;2320797;54;20944;-69
2021/11/30 00:30:50;;;;;;;5.07;2.37;;;5.30;72.90;;;;;;2320740;54;20926;-69
2021/11/30 00:33:16;;;;;;;4.45;2.12;;;5.30;72.90;;;;;;2577726;53;20983;-70
2021/11/30 00:35:43;;;;;;;4.00;1.87;;;5.30;72.90;;;;;;2327130;54;21939;-74
2021/11/30 00:38:13;;;;;;;4.05;1.95;;;5.30;72.90;;;;;;2568828;53;20961;-72
2021/11/30 00:40:41;;;;;;;4.00;2.00;;;5.30;72.90;;;;;;2341741;54;21787;-72
2021/11/30 00:43:07;;;;;;;4.18;2.00;;;5.40;72.90;;;;;;2323816;54;21050;-71
2021/11/30 00:45:49;;;;;;;3.95;2.17;;;5.40;72.90;;;;;;2340409;54;21778;-73
2021/11/30 00:48:20;;;;;;;4.75;2.50;;;5.40;72.90;;;;;;2586184;53;21003;-71
2021/11/30 00:50:46;;;;;;;5.82;2.15;;;5.40;72.90;;;;;;2322654;54;21850;-73
2021/11/30 00:53:12;;;;;;;6.82;2.50;;;5.40;72.80;;;;;;2339810;54;20937;-69
2021/11/30 00:55:41;;;;;;;4.32;2.35;;;5.30;72.70;;;;;;2342210;54;21083;-71
2021/11/30 00:58:07;;;;;;;4.55;2.50;;;5.30;72.90;;;;;;2317244;54;21034;-70
2021/11/30 01:00:36;;;;;;;4.22;2.20;;;5.30;72.80;;;;;;2314164;54;20935;-71
2021/11/30 01:03:04;;;;;;;4.37;2.10;;;5.40;72.90;;;;;;2316218;53;21014;-72
2021/11/30 01:05:30;;;;;;;4.20;2.28;;;5.40;72.90;;;;;;2539419;53;21021;-69
2021/11/30 01:07:57;;;;;;;4.32;1.98;;;5.40;72.80;;;;;;2300217;54;21019;-74
2021/11/30 01:10:25;;;;;;;4.60;2.03;;;5.40;72.90;;;;;;2319211;54;21022;-74
2021/11/30 01:12:52;;;;;;;4.22;2.05;;;5.40;73.10;;;;;;2536415;54;21024;-69
2021/11/30 01:15:19;;;;;;;4.93;2.30;;;5.40;72.90;;;;;;2555681;54;20975;-71
2021/11/30 01:17:46;;;;;;;5.12;2.05;;;5.40;72.80;;;;;;2274516;55;21056;-74
2021/11/30 01:20:14;;;;;;;5.10;1.92;;;5.40;72.90;;;;;;2537682;54;20981;-72
2021/11/30 01:22:42;;;;;;;5.80;2.03;;;5.40;72.70;;;;;;2541816;54;21011;-70
2021/11/30 01:25:08;;;;;;;6.10;2.12;;;5.60;72.70;;;;;;2315077;54;21011;-70
2021/11/30 01:27:35;;;;;;;3.80;2.15;;;5.40;72.40;;;;;;2299769;54;21055;-73
2021/11/30 01:30:04;;;;;;;4.10;2.20;;;5.40;72.40;;;;;;2311158;54;21418;-71
2021/11/30 01:32:30;;;;;;;4.45;2.17;;;5.30;72.20;;;;;;2555280;54;21963;-69
2021/11/30 01:34:57;;;;;;;4.15;1.90;;;5.30;72.20;;;;;;2318455;54;20931;-73
2021/11/30 01:37:26;;;;;;;4.03;2.03;;;5.30;72.40;;;;;;2306830;55;21026;-70
2021/11/30 01:39:52;;;;;;;7.32;2.60;;;5.30;72.40;;;;;;2535553;53;20982;-73
2021/11/30 01:42:19;;;;;;;5.90;2.30;;;5.30;72.30;;;;;;2504611;55;21001;-73
2021/11/30 01:44:51;;;;;;;6.93;2.50;;;5.30;72.20;;;;;;2539671;54;21110;-72
2021/11/30 01:47:41;;;;;;;4.12;2.50;;;5.30;72.30;;;;;;2553805;54;20963;-69
2021/11/30 01:50:08;;;;;;;6.03;2.50;;;5.30;72.20;;;;;;2314572;54;20999;-70
2021/11/30 01:52:36;;;;;;;4.25;2.12;;;5.20;72.20;;;;;;2314757;54;21000;-70
2021/11/30 01:55:04;;;;;;;4.78;2.55;;;5.30;72.20;;;;;;2554609;54;20984;-72
2021/11/30 01:57:30;;;;;;;4.90;2.20;;;5.20;72.20;;;;;;2314738;54;21031;-71
2021/11/30 01:59:58;;;;;;;4.80;2.37;;;5.20;72.20;;;;;;2314996;54;20919;-69
2021/11/30 02:02:25;;;;;;;5.93;2.10;;;5.20;72.20;;;;;;2315615;54;20939;-69
2021/11/30 02:04:51;;;;;;;4.80;2.42;;;5.20;72.20;;;;;;2567970;53;21405;-70
2021/11/30 02:07:19;;;;;;;5.87;2.42;;;5.20;72.20;;;;;;2340650;54;21031;-71
2021/11/30 02:09:46;;;;;;;5.75;2.33;;;5.20;72.20;;;;;;2325755;54;20988;-69
2021/11/30 02:12:12;;;;;;;4.53;2.00;;;5.20;72.30;;;;;;2328337;54;21667;-72
2021/11/30 02:14:39;;;;;;;6.53;2.33;;;5.20;72.40;;;;;;2319894;54;21492;-71
2021/11/30 02:17:08;;;;;;;6.87;2.47;;;5.20;72.50;;;;;;2320011;54;20989;-72
2021/11/30 02:19:42;;;;;;;6.15;2.53;;;5.10;72.40;;;;;;2554766;53;21016;-72
2021/11/30 02:22:13;;;;;;;4.80;2.37;;;5.20;72.60;;;;;;2342202;54;20941;-72
2021/11/30 02:24:39;;;;;;;4.57;2.37;;;5.20;72.60;;;;;;2555981;53;21030;-69
2021/11/30 02:27:07;;;;;;;4.82;2.10;;;5.20;72.70;;;;;;2570811;53;20979;-71
2021/11/30 02:29:33;;;;;;;4.50;2.22;;;5.20;72.70;;;;;;2328216;54;20977;-69
2021/11/30 02:32:03;;;;;;;3.90;2.10;;;5.20;72.60;;;;;;2342738;54;21077;-69
2021/11/30 02:34:29;;;;;;;4.85;2.10;;;5.20;72.90;;;;;;2564216;53;20970;-73
2021/11/30 02:37:04;;;;;;;5.70;2.50;;;5.20;73.00;;;;;;2335209;54;20944;-70
2021/11/30 02:39:32;;;;;;;4.78;2.40;;;5.20;72.90;;;;;;2563996;53;20947;-72
2021/11/30 02:42:02;;;;;;;5.85;2.25;;;5.20;72.90;;;;;;2336109;54;20921;-71
2021/11/30 02:44:28;;;;;;;6.68;2.25;;;5.20;72.80;;;;;;2342069;54;20996;-70
2021/11/30 02:47:28;;;;;;;4.40;2.08;;;5.20;73.40;;;;;;2334481;54;20986;-73
2021/11/30 02:49:57;;;;;;;4.95;2.70;;;5.20;72.40;;;;;;2300370;55;21057;-71
2021/11/30 02:52:28;;;;;;;5.05;2.40;;;5.20;72.80;;;;;;2314672;55;21001;-70
2021/11/30 02:54:54;;;;;;;7.82;2.47;;;5.20;72.60;;;;;;2332990;54;21018;-73
2021/11/30 02:57:21;;;;;;;3.60;1.75;;;5.20;72.60;;;;;;2326801;54;20949;-71
2021/11/30 02:59:49;;;;;;;5.03;2.30;;;5.30;72.70;;;;;;2322692;54;20949;-69
2021/11/30 03:02:17;;;;;;;3.55;1.95;;;5.30;72.60;;;;;;2319893;54;20952;-70
2021/11/30 03:04:47;;;;;;;4.50;2.40;;;5.20;72.50;;;;;;2588455;53;21414;-72
2021/11/30 03:07:16;;;;;;;4.22;2.00;;;5.20;72.30;;;;;;2588267;53;20996;-72
2021/11/30 03:09:42;;;;;;;4.65;2.10;;;5.20;72.40;;;;;;2341253;54;21000;-70
2021/11/30 03:12:09;;;;;;;5.32;2.15;;;5.20;72.30;;;;;;2341924;54;21020;-70
2021/11/30 03:14:35;;;;;;;4.78;2.35;;;5.20;72.30;;;;;;2322848;54;20914;-70
2021/11/30 03:17:02;;;;;;;3.83;2.00;;;5.20;72.50;;;;;;2339661;54;20940;-73
2021/11/30 03:19:30;;;;;;;5.32;2.67;;;5.20;72.60;;;;;;2342733;54;21064;-72
2021/11/30 03:21:57;;;;;;;3.53;1.80;;;5.20;72.70;;;;;;2342494;54;21004;-69
2021/11/30 03:24:23;;;;;;;3.92;1.80;;;5.20;72.60;;;;;;2299908;55;21486;-74
2021/11/30 03:26:50;;;;;;;5.32;2.30;;;5.20;72.60;;;;;;2556181;53;21488;-71
2021/11/30 03:29:16;;;;;;;6.22;2.35;;;5.20;72.60;;;;;;2326491;54;21744;-72
2021/11/30 03:31:49;;;;;;;4.35;2.00;;;5.20;72.50;;;;;;2557958;53;20976;-73
2021/11/30 03:34:17;;;;;;;6.22;2.60;;;5.20;72.50;;;;;;2332032;54;21393;-69
2021/11/30 03:36:45;;;;;;;4.30;2.00;;;5.30;72.60;;;;;;2340767;54;20992;-70
2021/11/30 03:39:19;;;;;;;3.50;1.98;;;5.20;72.40;;;;;;2571640;53;20982;-71
2021/11/30 03:41:45;;;;;;;5.05;2.30;;;5.30;72.40;;;;;;2555707;53;20943;-70
2021/11/30 03:44:12;;;;;;;5.03;2.40;;;5.30;72.60;;;;;;2337926;54;20941;-69
2021/11/30 03:46:42;;;;;;;4.65;2.30;;;5.20;72.50;;;;;;2341723;54;20979;-72
2021/11/30 03:49:10;;;;;;;4.60;2.30;;;5.30;72.40;;;;;;2342499;54;20921;-69
2021/11/30 03:51:40;;;;;;;5.35;1.98;;;5.30;72.40;;;;;;2318904;54;20915;-74
2021/11/30 03:54:07;;;;;;;4.43;2.05;;;5.20;72.30;;;;;;2332362;54;20941;-70
2021/11/30 03:56:33;;;;;;;8.45;3.30;;;5.30;72.30;;;;;;2569121;53;21430;-72
2021/11/30 03:59:01;;;;;;;5.93;2.35;;;5.30;72.10;;;;;;2334640;54;20978;-72
2021/11/30 04:01:27;;;;;;;5.05;2.42;;;5.30;72.60;;;;;;2327882;54;20977;-73
2021/11/30 04:03:55;;;;;;;6.72;3.03;;;5.30;72.50;;;;;;2320420;54;20929;-70
2021/11/30 04:06:22;;;;;;;5.05;2.50;;;5.30;72.40;;;;;;2557436;53;20964;-69
2021/11/30 04:08:50;;;;;;;6.30;2.58;;;5.30;72.60;;;;;;2344265;54;20921;-74
2021/11/30 04:11:17;;;;;;;6.20;2.58;;;5.30;72.40;;;;;;2557098;53;21283;-69
2021/11/30 04:13:45;;;;;;;5.85;2.50;;;5.30;72.40;;;;;;2338659;54;20981;-70
2021/11/30 04:16:11;;;;;;;5.12;2.62;;;5.30;72.50;;;;;;2588118;53;21001;-70
2021/11/30 04:18:37;;;;;;;6.47;2.80;;;5.30;72.40;;;;;;2588088;53;21246;-71
2021/11/30 04:21:06;;;;;;;6.47;2.53;;;5.30;72.30;;;;;;2319226;54;21846;-71
2021/11/30 04:23:33;;;;;;;4.78;2.60;;;5.30;72.60;;;;;;2342234;54;20924;-72
2021/11/30 04:26:02;;;;;;;7.03;2.90;;;5.30;72.60;;;;;;2342035;54;20969;-72
2021/11/30 04:28:30;;;;;;;8.40;3.25;;;5.30;72.40;;;;;;2584031;53;20905;-71
2021/11/30 04:31:00;;;;;;;6.93;2.50;;;5.30;72.10;;;;;;2559622;53;20952;-70
2021/11/30 04:33:27;;;;;;;5.32;2.30;;;5.30;72.40;;;;;;2341711;54;21509;-72
2021/11/30 04:35:53;;;;;;;5.55;3.20;;;5.30;72.40;;;;;;2563120;53;21133;-70
2021/11/30 04:38:20;;;;;;;5.32;2.90;;;5.30;72.20;;;;;;2324406;54;21296;-70
2021/11/30 04:40:46;;;;;;;5.65;2.67;;;5.30;72.00;;;;;;2312976;54;21385;-70
2021/11/30 04:43:13;;;;;;;5.65;2.75;;;5.30;72.40;;;;;;2581151;53;20999;-72
2021/11/30 04:45:59;;;;;;;5.20;2.65;;;5.30;72.40;;;;;;2317915;55;20969;-72
2021/11/30 04:48:25;;;;;;;6.35;3.03;;;5.30;72.30;;;;;;2326308;54;21411;-71
2021/11/30 04:50:54;;;;;;;6.05;2.80;;;5.30;72.10;;;;;;2335315;54;20944;-71
2021/11/30 04:53:21;;;;;;;4.62;2.60;;;5.30;72.20;;;;;;2341124;54;21040;-73
2021/11/30 04:55:51;;;;;;;7.12;2.78;;;5.30;72.40;;;;;;2342394;54;21917;-72
2021/11/30 04:58:21;;;;;;;5.62;2.87;;;5.40;72.20;;;;;;2554968;53;21010;-74
2021/11/30 05:00:48;;;;;;;5.55;3.00;;;5.40;72.20;;;;;;2586962;53;20985;-70
2021/11/30 05:03:14;;;;;;;7.20;3.00;;;5.40;72.10;;;;;;2342268;54;20929;-71
2021/11/30 05:05:41;;;;;;;6.53;2.90;;;5.40;72.30;;;;;;2327739;54;21007;-70
2021/11/30 05:08:08;;;;;;;5.62;2.90;;;5.40;72.00;;;;;;2323476;54;20902;-69
2021/11/30 05:10:34;;;;;;;6.75;3.05;;;5.40;71.90;;;;;;2324016;54;20977;-68
2021/11/30 05:13:03;;;;;;;5.37;3.05;;;5.40;71.80;;;;;;2547188;53;21696;-71
2021/11/30 05:15:33;;;;;;;6.60;3.35;;;5.30;71.80;;;;;;2341761;54;20972;-70
2021/11/30 05:17:59;;;;;;;5.90;2.92;;;5.30;72.00;;;;;;2338802;54;21878;-72
2021/11/30 05:20:26;;;;;;;5.65;3.40;;;5.30;72.00;;;;;;2315517;54;21103;-70
2021/11/30 05:22:54;;;;;;;5.37;3.00;;;5.30;71.30;;;;;;2316055;54;20945;-70
2021/11/30 05:25:24;;;;;;;5.78;3.08;;;5.30;71.70;;;;;;2318580;54;20997;-69
2021/11/30 05:27:51;;;;;;;6.35;3.17;;;5.30;71.80;;;;;;2318625;54;21037;-72
2021/11/30 05:30:20;;;;;;;5.70;3.00;;;5.30;72.00;;;;;;2342081;54;20980;-69
2021/11/30 05:32:46;;;;;;;6.68;2.97;;;5.30;72.10;;;;;;2305844;55;20984;-70
2021/11/30 05:35:16;;;;;;;6.72;3.03;;;5.30;72.20;;;;;;2311419;54;20953;-69
2021/11/30 05:37:43;;;;;;;5.87;2.62;;;5.30;72.00;;;;;;2320517;54;21442;-72
2021/11/30 05:40:09;;;;;;;5.72;3.00;;;5.30;71.90;;;;;;2341295;54;20952;-69
2021/11/30 05:42:38;;;;;;;4.80;2.78;;;5.30;72.00;;;;;;2341482;54;21604;-71
2021/11/30 05:45:05;;;;;;;8.50;2.87;;;5.30;72.00;;;;;;2341140;54;20984;-70
2021/11/30 05:47:31;;;;;;;6.70;2.90;;;5.30;72.30;;;;;;2339995;54;21857;-71
2021/11/30 05:49:58;;;;;;;3.92;2.40;;;5.30;71.80;;;;;;2338090;54;20985;-71
2021/11/30 05:52:24;;;;;;;3.90;2.33;;;5.40;71.70;;;;;;2323157;54;20976;-71
2021/11/30 05:54:52;;;;;;;6.50;2.90;;;5.40;71.90;;;;;;2317654;54;20982;-69
2021/11/30 05:57:21;;;;;;;4.70;2.30;;;5.30;71.60;;;;;;2303705;55;21421;-71
2021/11/30 05:59:48;;;;;;;6.55;3.00;;;5.30;72.70;;;;;;2310897;55;20968;-69
2021/11/30 06:02:20;;;;;;;5.22;2.00;;;5.30;71.70;;;;;;2319400;54;20976;-68
2021/11/30 06:04:46;;;;;;;5.73;2.47;;;5.30;71.60;;;;;;2311316;54;20931;-71
2021/11/30 06:07:13;;;;;;;7.10;2.67;;;5.30;71.30;;;;;;2311478;54;20935;-70
2021/11/30 06:09:39;;;;;;;6.60;2.53;;;5.30;71.50;;;;;;2557062;53;21015;-70
2021/11/30 06:12:06;;;;;;;6.03;2.90;;;5.30;71.50;;;;;;2558383;53;21825;-73
2021/11/30 06:14:32;;;;;;;5.55;2.95;;;5.30;71.30;;;;;;2318974;54;20998;-69
2021/11/30 06:16:58;;;;;;;4.28;2.40;;;5.30;71.20;;;;;;2571973;53;20967;-71
2021/11/30 06:19:25;;;;;;;5.50;2.75;;;5.20;71.10;;;;;;2565907;53;20986;-72
2021/11/30 06:21:51;;;;;;;5.43;3.03;;;5.20;71.00;;;;;;2320405;54;20976;-70
2021/11/30 06:24:29;;;;;;;4.57;2.33;;;5.20;71.00;;;;;;2318466;55;21010;-69
2021/11/30 06:26:56;;;;;;;4.95;2.53;;;5.10;71.00;;;;;;2565130;53;21316;-71
2021/11/30 06:29:22;;;;;;;6.22;2.53;;;5.10;71.10;;;;;;2334414;54;20948;-72
2021/11/30 06:31:50;;;;;;;5.18;2.50;;;5.10;71.10;;;;;;2342102;57;21088;-70
2021/11/30 06:34:18;;;;;;;4.53;2.67;;;5.00;71.10;;;;;;2589146;53;21069;-71
2021/11/30 06:36:45;;;;;;;5.40;2.50;;;5.00;71.10;;;;;;2342107;57;21073;-72
2021/11/30 06:39:13;;;;;;;5.82;2.70;;;5.00;71.20;;;;;;2578512;53;21180;-68
2021/11/30 06:41:39;;;;;;;5.87;3.08;;;5.00;71.40;;;;;;2552130;53;20943;-71
2021/11/30 06:44:07;;;;;;;6.70;2.50;;;4.90;71.20;;;;;;2312339;54;21008;-73
2021/11/30 06:46:34;;;;;;;4.72;2.42;;;4.90;71.50;;;;;;2338560;54;20975;-70
2021/11/30 06:49:00;;;;;;;5.87;2.62;;;4.90;71.90;;;;;;2564341;53;20993;-72
2021/11/30 06:51:27;;;;;;;5.20;2.75;;;4.90;71.70;;;;;;2318620;55;21504;-72
2021/11/30 06:53:56;;;;;;;4.97;2.62;;;4.90;72.00;;;;;;2319634;54;21469;-73
2021/11/30 06:56:28;;;;;;;4.87;2.53;;;4.90;72.00;;;;;;2342563;57;21033;-71
2021/11/30 06:58:55;;;;;;;5.43;3.10;;;4.90;72.10;;;;;;2335367;54;20989;-72
2021/11/30 07:01:21;;;;;;;5.80;2.72;;;4.90;71.90;;;;;;2341583;54;21000;-71
2021/11/30 07:03:48;;;;;;;7.05;3.12;;;4.90;72.10;;;;;;2334583;54;21077;-71
2021/11/30 07:06:27;;;;;;;5.43;3.20;;;4.90;72.20;;;;;;2343449;57;21052;-70
2021/11/30 07:09:21;;;;;;;5.90;3.10;;;4.90;71.90;;;;;;2342071;57;21115;-71
2021/11/30 07:21:03;;;;;;;5.75;3.12;;;5.00;71.80;;;;;;2322525;54;21033;-69
2021/11/30 07:23:30;;;;;;;4.97;2.87;;;5.00;71.40;;;;;;2549371;53;21078;-70
2021/11/30 07:25:56;;;;;;;7.12;3.20;;;4.90;71.30;;;;;;2588003;53;20929;-71
2021/11/30 07:28:30;;;;;;;7.30;3.10;;;5.00;71.50;;;;;;2342089;54;20964;-72
2021/11/30 07:31:03;;;;;;;4.93;3.00;;;5.00;72.00;;;;;;2342926;54;20957;-72
2021/11/30 07:33:33;;;;;;;5.95;3.37;;;5.00;72.10;;;;;;2590092;53;21065;-70
2021/11/30 07:36:00;;;;;;;6.35;3.37;;;4.90;72.30;;;;;;2342324;57;21124;-71
2021/11/30 07:38:28;;;;;;;6.15;3.12;;;5.00;72.40;;;;;;2342039;57;21167;-70
2021/11/30 07:40:54;;;;;;;5.80;3.10;;;5.00;72.10;;;;;;2320606;54;21014;-70
2021/11/30 07:43:21;;;;;;;6.20;3.33;;;5.00;72.00;;;;;;2316923;54;21023;-70
2021/11/30 07:45:47;;;;;;;7.75;3.90;;;5.00;72.20;;;;;;2548920;53;21033;-71
2021/11/30 07:48:16;;;;;;;6.87;3.78;;;5.00;71.70;;;;;;2561137;53;21004;-70
2021/11/30 07:50:45;;;;;;;5.35;3.05;;;5.00;71.90;;;;;;2320672;54;21013;-73
2021/11/30 07:53:11;;;;;;;5.37;3.10;;;5.00;71.80;;;;;;2341656;57;21088;-73
2021/11/30 07:55:40;;;;;;;5.78;3.10;;;5.00;72.00;;;;;;2341830;57;21061;-73
2021/11/30 07:58:06;;;;;;;8.70;3.62;;;5.00;71.70;;;;;;2588683;53;21056;-74
2021/11/30 08:00:33;;;;;;;5.62;3.60;;;5.00;72.00;;;;;;2342065;57;21077;-73
2021/11/30 08:02:59;;;;;;;7.75;3.40;;;5.10;71.80;;;;;;2342225;57;21120;-73
2021/11/30 08:05:25;;;;;;;9.93;3.70;;;5.10;72.40;;;;;;2318072;54;21125;-72
2021/11/30 08:07:52;;;;;;;8.73;3.42;;;5.10;71.90;;;;;;2566545;53;20956;-73
2021/11/30 08:10:20;;;;;;;6.55;3.42;;;5.10;72.40;;;;;;2324968;54;21082;-74
2021/11/30 08:12:46;;;;;;;7.90;3.55;;;5.10;72.70;;;;;;2315911;55;21049;-73
2021/11/30 08:15:13;;;;;;;5.93;3.42;;;5.30;72.90;;;;;;2565400;53;21026;-72
2021/11/30 08:17:51;;;;;;;9.73;3.10;;;5.20;72.00;;;;;;2327606;54;20975;-74
2021/11/30 08:20:18;;;;;;;8.88;3.62;;;5.20;72.00;;;;;;2561828;53;20996;-73
2021/11/30 08:22:44;;;;;;;6.68;3.47;;;5.30;71.30;;;;;;2547998;54;20940;-72
2021/11/30 08:25:11;;;;;;;7.03;3.58;;;5.30;71.80;;;;;;2562350;53;20982;-70
2021/11/30 08:27:37;;;;;;;7.68;3.35;;;5.30;72.30;;;;;;2567817;53;20952;-73
2021/11/30 08:30:04;;;;;;;6.18;3.12;;;5.40;72.10;;;;;;2341929;54;21000;-70
2021/11/30 08:32:31;;;;;;;7.10;3.40;;;5.40;72.40;;;;;;2570264;53;21423;-71
2021/11/30 08:34:57;;;;;;;7.15;3.50;;;5.40;72.40;;;;;;2304200;54;21023;-72
2021/11/30 08:37:24;;;;;;;5.85;3.33;;;5.50;72.00;;;;;;2315414;54;20937;-70
2021/11/30 08:39:52;;;;;;;8.60;3.40;;;5.50;71.90;;;;;;2332465;54;21030;-72
2021/11/30 08:42:19;;;;;;;6.82;3.30;;;5.50;72.20;;;;;;2326992;54;20973;-73
2021/11/30 08:44:46;;;;;;;6.03;3.30;;;5.50;72.20;;;;;;2318195;54;21446;-71
2021/11/30 08:47:16;;;;;;;6.05;2.92;;;5.60;72.10;;;;;;2554451;53;21432;-70
2021/11/30 08:49:44;;;;;;;6.43;3.03;;;5.60;71.70;;;;;;2587697;53;20992;-71
2021/11/30 08:52:15;;;;;;;6.95;3.12;;;5.70;72.20;;;;;;2342179;54;20960;-71
2021/11/30 08:54:41;;;;;;;9.60;3.25;;;5.70;72.30;;;;;;2584657;53;20917;-70
2021/11/30 08:57:10;;;;;;;6.85;3.28;;;5.70;72.10;;;;;;2318469;54;21017;-72
2021/11/30 08:59:38;;;;;;;5.60;3.20;;;5.70;71.80;;;;;;2554870;53;21196;-71
2021/11/30 09:02:04;;;;;;;6.15;2.95;;;5.80;71.90;;;;;;2321849;54;21011;-71
2021/11/30 09:04:31;;;;;;;6.05;3.28;;;5.80;72.20;;;;;;2336556;54;20937;-70
2021/11/30 09:06:59;;;;;;;7.57;3.20;;;5.80;72.40;;;;;;2588469;53;20961;-71
2021/11/30 09:09:26;;;;;;;5.25;2.92;;;5.80;72.20;;;;;;2328420;54;21851;-73
2021/11/30 09:12:01;;;;;;;5.12;2.50;;;5.80;72.10;;;;;;2337733;54;21046;-71
2021/11/30 09:14:28;;;;;;;6.28;3.62;;;5.90;72.20;;;;;;2555106;53;20929;-73
2021/11/30 09:16:55;;;;;;;5.45;2.95;;;5.90;71.50;;;;;;2557373;53;20935;-72
2021/11/30 09:19:21;;;;;;;6.68;2.83;;;5.90;71.50;;;;;;2556869;53;20926;-71
2021/11/30 09:21:48;;;;;;;6.37;3.42;;;5.90;72.10;;;;;;2551177;54;20967;-72
2021/11/30 09:24:15;;;;;;;4.95;2.58;;;6.00;70.90;;;;;;2337659;54;21015;-72
2021/11/30 09:26:44;;;;;;;8.07;2.67;;;6.00;72.00;;;;;;2584275;53;20940;-72
2021/11/30 09:29:12;;;;;;;7.65;2.70;;;6.00;72.00;;;;;;2556648;53;20949;-72
2021/11/30 09:31:38;;;;;;;5.85;2.85;;;6.00;71.40;;;;;;2337757;54;20965;-72
2021/11/30 09:34:06;;;;;;;5.37;2.90;;;6.00;70.90;;;;;;2322998;54;20964;-70
2021/11/30 09:36:35;;;;;;;5.78;2.60;;;6.10;71.50;;;;;;2326234;54;20920;-70
2021/11/30 09:39:03;;;;;;;6.68;2.60;;;6.10;71.90;;;;;;2304732;55;21012;-72
2021/11/30 09:41:31;;;;;;;7.57;2.97;;;6.10;72.40;;;;;;2540999;53;21056;-71
2021/11/30 09:43:57;;;;;;;4.47;2.40;;;6.10;72.10;;;;;;2323022;54;21711;-73
2021/11/30 09:46:23;;;;;;;6.45;2.25;;;6.20;72.20;;;;;;2566581;53;21097;-73
2021/11/30 09:48:51;;;;;;;5.07;2.87;;;6.10;72.20;;;;;;2319390;54;21013;-71
2021/11/30 09:51:19;;;;;;;6.43;2.60;;;6.20;72.30;;;;;;2333568;54;21052;-71
2021/11/30 09:53:46;;;;;;;5.68;2.45;;;6.20;72.40;;;;;;2340331;54;20940;-69
2021/11/30 09:56:12;;;;;;;6.28;2.72;;;6.20;72.10;;;;;;2321838;54;21438;-71
2021/11/30 09:58:39;;;;;;;6.80;3.00;;;6.30;72.40;;;;;;2575213;53;21044;-70
2021/11/30 10:01:09;;;;;;;5.35;2.40;;;6.30;71.30;;;;;;2564660;53;20993;-70
2021/11/30 10:03:36;;;;;;;5.20;2.37;;;6.30;71.50;;;;;;2587240;53;20997;-68
2021/11/30 10:06:03;;;;;;;4.53;2.35;;;6.30;72.20;;;;;;2587542;53;20992;-70
2021/11/30 10:08:38;;;;;;;5.03;2.45;;;6.30;71.80;;;;;;2587501;53;21427;-71
2021/11/30 10:11:07;;;;;;;6.68;2.72;;;6.30;71.60;;;;;;2327839;54;20950;-70
2021/11/30 10:13:36;;;;;;;5.87;2.80;;;6.40;71.60;;;;;;2580178;53;21456;-70
2021/11/30 10:16:06;;;;;;;4.20;1.87;;;6.40;71.60;;;;;;2316566;54;21044;-70
2021/11/30 10:18:45;;;;;;;5.07;2.42;;;6.40;71.70;;;;;;2322489;54;20985;-71
2021/11/30 10:21:22;;;;;;;4.87;2.37;;;6.50;72.20;;;;;;2555671;53;20971;-71
2021/11/30 10:24:22;;;;;;;5.85;2.53;;;6.50;71.90;;;;;;2319702;54;20945;-72
2021/11/30 10:26:49;;;;;;;4.15;2.55;;;6.50;71.00;;;;;;2318398;54;20950;-68
2021/11/30 10:29:17;;;;;;;4.12;2.10;;;6.50;71.40;;;;;;2342026;54;20929;-72
2021/11/30 10:31:45;;;;;;;4.60;2.12;;;6.50;71.70;;;;;;2341867;54;20952;-70
2021/11/30 10:34:29;;;;;;;5.37;2.50;;;6.50;71.60;;;;;;2342270;54;20941;-70
2021/11/30 10:37:16;;;;;;;5.60;2.12;;;6.60;71.30;;;;;;2324843;54;20915;-70
2021/11/30 10:39:44;;;;;;;5.37;2.37;;;6.60;72.20;;;;;;2585556;53;21397;-72
2021/11/30 10:42:22;;;;;;;5.90;2.62;;;6.60;72.40;;;;;;2341586;54;20965;-70
2021/11/30 10:44:53;;;;;;;4.30;2.30;;;6.60;72.20;;;;;;2337348;54;21486;-69
2021/11/30 10:47:21;;;;;;;4.12;2.22;;;6.70;72.60;;;;;;2556699;53;21563;-71
2021/11/30 10:49:55;;;;;;;5.30;2.28;;;6.70;72.40;;;;;;2565942;53;21091;-69
2021/11/30 10:52:30;;;;;;;6.18;1.95;;;6.70;72.80;;;;;;2318453;54;21009;-71
2021/11/30 10:55:16;;;;;;;4.53;2.30;;;6.70;72.30;;;;;;2586955;53;21056;-72
2021/11/30 10:57:43;;;;;;;4.45;2.37;;;6.80;72.00;;;;;;2587304;53;20960;-70
2021/11/30 11:00:29;;;;;;;5.47;2.17;;;6.80;71.30;;;;;;2588297;53;21680;-72
2021/11/30 11:03:04;;;;;;;4.70;2.30;;;6.80;72.10;;;;;;2587997;53;21104;-72
2021/11/30 11:05:34;;;;;;;4.30;2.45;;;6.80;72.00;;;;;;2318760;54;20946;-70
2021/11/30 11:08:06;;;;;;;4.72;2.33;;;6.80;71.90;;;;;;2586551;53;21009;-69
2021/11/30 11:10:33;;;;;;;5.15;2.47;;;6.80;71.30;;;;;;2334948;54;21408;-70
2021/11/30 11:19:48;;;;;;;6.25;2.55;;;6.80;71.50;;;;;;2325797;54;21213;-68
2021/11/30 11:22:27;;;;;;;5.90;2.97;;;6.90;71.10;;;;;;2323318;54;20990;-72
2021/11/30 11:24:58;;;;;;;5.70;2.47;;;6.90;72.00;;;;;;2330703;54;20963;-73
2021/11/30 11:27:32;;;;;;;3.65;2.30;;;6.90;71.10;;;;;;2320305;54;20918;-69
2021/11/30 11:29:59;;;;;;;4.87;2.58;;;6.90;71.40;;;;;;2573564;53;20964;-71
2021/11/30 11:32:26;;;;;;;7.45;2.50;;;6.90;71.80;;;;;;2316705;54;21373;-69
2021/11/30 11:34:52;;;;;;;4.95;2.22;;;6.90;72.10;;;;;;2335039;54;20956;-71
2021/11/30 11:37:19;;;;;;;6.53;2.58;;;6.90;71.90;;;;;;2587215;53;21532;-71
2021/11/30 11:39:45;;;;;;;6.07;2.28;;;6.90;72.40;;;;;;2322228;54;20976;-71
2021/11/30 11:42:12;;;;;;;6.55;2.50;;;6.90;72.20;;;;;;2320383;54;20988;-72
2021/11/30 11:44:39;;;;;;;5.15;2.62;;;6.90;72.30;;;;;;2352958;53;3554304;-72
2021/11/30 11:47:10;;;;;;;7.00;2.20;;;6.90;72.20;;;;;;2341389;54;21071;-72
2021/11/30 11:49:44;;;;;;;5.07;2.33;;;7.00;72.10;;;;;;2341788;54;21362;-72
2021/11/30 11:52:23;;;;;;;5.35;2.60;;;7.00;72.10;;;;;;2338428;54;21056;-69
2021/11/30 11:56:07;;;;;;;4.18;2.00;;;7.00;70.90;;;;;;2303995;55;21029;-70
2021/11/30 11:58:35;;;;;;;6.05;2.50;;;7.00;71.00;;;;;;2559424;53;20955;-72
2021/11/30 12:01:02;;;;;;;4.62;2.50;;;7.00;72.10;;;;;;2582255;53;21008;-72
2021/11/30 12:03:59;;;;;;;6.03;2.50;;;7.00;72.00;;;;;;2317198;54;21580;-70
2021/11/30 12:06:28;;;;;;;7.47;2.60;;;7.10;72.00;;;;;;2320586;54;20910;-69
2021/11/30 12:15:55;;;;;;;4.40;2.35;;;7.00;72.00;;;;;;2548078;53;21047;-70
2021/11/30 12:18:43;;;;;;;4.57;2.20;;;7.10;70.80;;;;;;2345744;54;21001;-69
2021/11/30 12:21:18;;;;;;;3.87;2.10;;;7.10;71.50;;;;;;2587685;53;21008;-70
2021/11/30 12:23:47;;;;;;;6.50;2.28;;;7.10;72.10;;;;;;2327502;54;21511;-72
2021/11/30 12:26:41;;;;;;;4.78;2.00;;;7.10;71.40;;;;;;2333165;54;20956;-72
2021/11/30 12:30:59;;;;;;;6.70;2.53;;;7.00;71.50;;;;;;2322561;54;21002;-70
2021/11/30 12:33:35;;;;;;;4.43;2.30;;;7.10;70.50;;;;;;2571933;53;21505;-72
2021/11/30 12:36:07;;;;;;;6.15;2.20;;;7.00;71.00;;;;;;2570120;53;21013;-69
2021/11/30 12:38:39;;;;;;;4.87;2.15;;;7.00;71.00;;;;;;2341456;54;20993;-69
2021/11/30 12:48:11;;;;;;;5.05;2.28;;;7.00;71.10;;;;;;2342015;54;21473;-69
2021/11/30 12:50:40;;;;;;;4.90;2.30;;;7.00;71.40;;;;;;2340628;54;21520;-71
2021/11/30 12:53:07;;;;;;;6.80;2.30;;;7.00;71.50;;;;;;2336562;54;20975;-69
2021/11/30 12:58:37;;;;;;;4.45;2.53;;;7.00;71.60;;;;;;2324213;54;20981;-71
2021/11/30 13:01:55;;;;;;;4.87;2.30;;;6.90;70.30;;;;;;2330819;54;20982;-70
2021/11/30 13:04:32;;;;;;;3.97;1.90;;;6.90;70.80;;;;;;2340001;54;20976;-72
2021/11/30 13:07:17;;;;;;;3.65;2.05;;;6.90;70.90;;;;;;2315130;55;20967;-71
2021/11/30 13:09:45;;;;;;;5.43;2.20;;;6.90;71.00;;;;;;2325886;54;20929;-73
2021/11/30 13:12:19;;;;;;;4.62;2.03;;;6.80;71.70;;;;;;2329147;54;20996;-73
2021/11/30 13:14:46;;;;;;;4.00;2.00;;;6.90;71.50;;;;;;2333311;54;20917;-71
2021/11/30 13:20:18;;;;;;;4.47;2.00;;;6.80;71.00;;;;;;2584671;53;21068;-70
2021/11/30 13:22:46;;;;;;;4.10;1.77;;;6.90;71.30;;;;;;2557678;53;21455;-69
2021/11/30 13:25:30;;;;;;;4.97;2.05;;;6.80;71.40;;;;;;2324723;54;20936;-73
2021/11/30 13:28:02;;;;;;;3.45;1.35;;;6.80;71.90;;;;;;2547002;53;21530;-72
2021/11/30 13:30:30;;;;;;;3.03;1.58;;;6.90;71.70;;;;;;2317220;55;21029;-71
2021/11/30 13:33:14;;;;;;;4.10;1.45;;;6.90;71.90;;;;;;2333059;54;21664;-73
2021/11/30 13:35:56;;;;;;;3.12;1.58;;;6.90;71.80;;;;;;2329822;54;20940;-69
2021/11/30 13:38:34;;;;;;;4.03;1.62;;;6.90;71.80;;;;;;2586662;53;21008;-71
2021/11/30 13:41:05;;;;;;;3.58;1.75;;;6.90;71.20;;;;;;2341120;54;20908;-72
2021/11/30 13:43:54;;;;;;;3.65;1.60;;;6.90;70.50;;;;;;2587505;53;20961;-70
2021/11/30 13:46:51;;;;;;;3.20;1.55;;;6.80;70.70;;;;;;2338191;54;20949;-68
2021/11/30 13:49:17;;;;;;;2.75;1.30;;;6.80;70.50;;;;;;2586801;53;21064;-71